Pagrindinis puslapis
METAR-TAF:

METAR-TAF

Oro uostai :

Ranongas, Tailandas

platuma: 09-59N, ilguma: 098-37E, Aukštis: 7 m

Dabartinis oras

Ataskaita buvo paskelbta 28 minutes, ne 05:00 UTC
Vėjas 8 kt iš Vakarų/Pietvakarių, svyruoja nuo Pietų/Pietvakarių ir Vakarų
Temperatūra 31°C
Drėgmė 71%
Slėgis 1010 hPa
Matomumas 10 km arba daugiau
Mažai debesys ne aukštis 1800 ft, aukštai iškilę kamuoliniai debesys.
Su prošvaistėmis ne aukštis 2000 ft
Liūtis kaimynystėje

METAR: VTSR 210500Z 24008KT 200V280 9999 VCSH FEW018TCU BKN020 31/25 Q1010 NOSIG

Laikas: 12:28 (05:28 UTC)

Prognozė

Ataskaita buvo paskelbta 6 valandos ir 28 minutes, ne 23:00 UTC
Prognozė galioja nuo 21 metu 00 UTC su 21 metu 24 UTC
Vėjas 6 kt iš Vakarų/Pietvakarių
Matomumas 10 km arba daugiau
Mažai debesys ne aukštis 3000 ft
Tapsmas
nuo 21 metu 12 UTC su 21 metu 14 UTC
Vėjas kt iš Šiaurės

TAF: VTSR 202300Z 2100/2124 24006KT 9999 FEW030 BECMG 2112/2114 00000KT

Orai ataskaitas ir orų prognozės (METAR, TAF).

turimą stotys yra geltonos ir raudonos taškus žemėlapyje.

Perkelti pele per norėdami pamatyti stoties vardą.

Tada spustelėkite, norėdami matyti oro stebėjimo ir prognozės.

Norėdami pakeisti žemėlapį: spustelėkite ant žalios mygtukų su juodo kryžiaus žemyn,; žalią mygtuką su brūkšneliu, jei norite nutolinti; arba žalių rodyklių gretimoms žemėlapius.


METAR-TAF: